Time;durP1;ratioP1;P1;durP2;ratioP2;P2;SDS_P1;SDS_P2;PMS_P1;PMS_P2;Temp;Humidity;BMP_temperature;BMP_pressure;BME280_temperature;BME280_humidity;BME280_pressure;Samples;Min_cycle;Max_cycle;Signal;HPM_P1;HPM_P2
2021/01/28 03:45:28;;;;;;;4.50;2.38;;;1.40;99.90;;;;;;5831809;23;85707;-85
2021/01/28 03:47:58;;;;;;;3.05;2.25;;;1.40;99.90;;;;;;4940368;28;85189;-87
2021/01/28 03:50:30;;;;;;;3.65;2.90;;;1.40;99.90;;;;;;4941021;28;83219;-85
2021/01/28 03:53:31;;;;;;;1.48;1.38;;;1.40;99.90;;;;;;4937435;28;83303;-86
2021/01/28 03:56:06;;;;;;;3.65;2.72;;;1.50;99.90;;;;;;4924093;28;83572;-87
2021/01/28 03:59:27;;;;;;;3.58;2.47;;;1.50;99.90;;;;;;4941497;28;83593;-86
2021/01/28 04:02:09;;;;;;;4.88;2.50;;;1.50;99.90;;;;;;4924169;28;83237;-86
2021/01/28 04:04:47;;;;;;;;;;;1.50;99.90;;;;;;4926185;28;83373;-85
2021/01/28 04:07:14;;;;;;;4.65;2.42;;;;;;;;;;4940931;28;83583;-86
2021/01/28 04:10:37;;;;;;;5.97;3.30;;;1.50;99.90;;;;;;4940826;28;83431;-87
2021/01/28 04:13:14;;;;;;;2.38;1.65;;;1.50;99.90;;;;;;4928135;28;83014;-87
2021/01/28 04:16:15;;;;;;;3.45;2.28;;;1.50;99.90;;;;;;4938749;28;83299;-87
2021/01/28 04:18:53;;;;;;;5.80;3.53;;;1.50;99.90;;;;;;4954204;28;84571;-87
2021/01/28 04:21:25;;;;;;;5.20;3.60;;;;;;;;;;4889394;28;84564;-87
2021/01/28 04:24:35;;;;;;;3.20;2.13;;;1.40;99.90;;;;;;4951875;28;83762;-87
2021/01/28 04:28:04;;;;;;;5.40;2.72;;;1.40;99.90;;;;;;4879759;29;83697;-86
2021/01/28 04:30:47;;;;;;;5.90;3.67;;;;;;;;;;4861473;29;83755;-87
2021/01/28 04:33:14;;;;;;;3.58;2.45;;;;;;;;;;4877879;29;83673;-86
2021/01/28 04:35:40;;;;;;;6.78;4.53;;;;;;;;;;4910617;28;83641;-85
2021/01/28 04:38:06;;;;;;;5.07;3.92;;;;;;;;;;4937183;28;83700;-83
2021/01/28 04:40:49;;;;;;;2.88;2.40;;;1.40;99.90;;;;;;4919042;28;84627;-84
2021/01/28 04:43:29;;;;;;;2.72;2.13;;;1.40;99.90;;;;;;4928053;28;84047;-85
2021/01/28 04:46:09;;;;;;;3.45;3.08;;;1.40;99.90;;;;;;4922918;28;83777;-83
2021/01/28 04:48:37;;;;;;;7.47;4.50;;;1.40;99.90;;;;;;4931518;28;83746;-84
2021/01/28 04:51:04;;;;;;;6.38;4.80;;;1.40;99.90;;;;;;4934633;28;85850;-82
2021/01/28 04:53:41;;;;;;;3.80;2.58;;;1.50;99.90;;;;;;4917121;28;84842;-82
2021/01/28 04:56:14;;;;;;;3.92;2.08;;;1.50;99.90;;;;;;4923456;28;83629;-84
2021/01/28 04:58:40;;;;;;;3.50;2.20;;;;;;;;;;4926975;28;84076;-84
2021/01/28 05:01:08;;;;;;;6.35;3.22;;;1.50;99.90;;;;;;4921628;28;85044;-84
2021/01/28 05:03:42;;;;;;;4.55;3.20;;;1.50;99.90;;;;;;4916539;28;86120;-85
2021/01/28 05:06:08;;;;;;;4.35;3.28;;;1.50;99.90;;;;;;4925213;28;84194;-84
2021/01/28 05:08:34;;;;;;;5.63;3.88;;;;;;;;;;4931211;28;83746;-83
2021/01/28 05:11:00;;;;;;;4.93;3.13;;;1.50;99.90;;;;;;4923059;28;83513;-83
2021/01/28 05:13:30;;;;;;;2.20;1.90;;;1.50;99.90;;;;;;4929301;28;84794;-82
2021/01/28 05:15:59;;;;;;;5.68;3.03;;;1.60;99.90;;;;;;4927815;28;84455;-83
2021/01/28 05:18:36;;;;;;;3.78;2.70;;;1.60;99.90;;;;;;4935706;28;83208;-83
2021/01/28 05:21:24;;;;;;;5.60;4.07;;;1.60;99.90;;;;;;4932844;28;83550;-83
2021/01/28 05:24:04;;;;;;;4.38;3.35;;;1.70;99.90;;;;;;4923267;28;83547;-83
2021/01/28 05:26:35;;;;;;;2.33;2.13;;;1.70;99.90;;;;;;4933047;28;83577;-84
2021/01/28 05:29:20;;;;;;;2.55;1.90;;;1.80;99.90;;;;;;4929245;28;83831;-82
2021/01/28 05:31:47;;;;;;;2.47;1.83;;;1.90;99.90;;;;;;4934272;28;83814;-81
2021/01/28 05:34:18;;;;;;;4.18;2.75;;;1.90;99.90;;;;;;4919954;28;87781;-83
2021/01/28 05:36:51;;;;;;;;;;;1.90;99.90;;;;;;4929723;28;83580;-83
2021/01/28 05:39:38;;;;;;;2.42;2.03;;;1.90;99.90;;;;;;4925793;28;83730;-83
2021/01/28 05:42:13;;;;;;;2.42;2.03;;;2.00;99.90;;;;;;4929631;28;85816;-82
2021/01/28 05:44:40;;;;;;;2.35;1.73;;;2.00;99.90;;;;;;4923289;28;84298;-82
2021/01/28 05:47:12;;;;;;;6.18;1.92;;;2.30;99.90;;;;;;4929266;28;83774;-82
2021/01/28 05:49:42;;;;;;;4.28;2.10;;;2.30;99.90;;;;;;4931031;28;83701;-83
2021/01/28 05:52:20;;;;;;;3.47;1.92;;;2.30;99.90;;;;;;4933379;28;84386;-83
2021/01/28 05:55:22;;;;;;;5.07;2.20;;;2.40;99.90;;;;;;4932576;28;83766;-84
2021/01/28 05:58:16;;;;;;;2.78;1.95;;;2.40;99.90;;;;;;4875412;28;82985;-83
2021/01/28 06:01:06;;;;;;;3.42;2.53;;;2.40;99.90;;;;;;4933766;28;83712;-82
2021/01/28 06:03:57;;;;;;;2.22;1.70;;;2.40;99.90;;;;;;4929814;28;83902;-83
2021/01/28 06:06:41;;;;;;;2.60;1.30;;;2.40;99.90;;;;;;4935176;28;84405;-82
2021/01/28 06:09:16;;;;;;;1.67;1.25;;;2.50;99.90;;;;;;4933516;28;83117;-84
2021/01/28 06:11:51;;;;;;;1.05;1.05;;;2.50;99.90;;;;;;4921532;28;83897;-85
2021/01/28 06:14:42;;;;;;;1.50;1.40;;;2.50;99.90;;;;;;4932948;28;86444;-81
2021/01/28 06:17:35;;;;;;;1.30;1.20;;;2.50;99.90;;;;;;4938692;28;85067;-83
2021/01/28 06:20:18;;;;;;;1.63;1.52;;;2.60;99.90;;;;;;4939604;28;83637;-83
2021/01/28 06:23:15;;;;;;;1.42;1.33;;;2.60;99.90;;;;;;4918816;28;83665;-84
2021/01/28 06:25:55;;;;;;;2.65;1.40;;;2.40;99.90;;;;;;4928964;28;85174;-83
2021/01/28 06:28:52;;;;;;;1.10;1.10;;;2.60;99.90;;;;;;4930950;28;83924;-84
2021/01/28 06:31:47;;;;;;;1.73;1.40;;;2.60;99.90;;;;;;4923868;28;83790;-85
2021/01/28 06:35:11;;;;;;;2.15;1.95;;;2.50;99.90;;;;;;4930967;28;84322;-84
2021/01/28 06:37:52;;;;;;;2.45;2.25;;;2.40;99.90;;;;;;4927203;28;84947;-87
2021/01/28 06:40:24;;;;;;;2.38;2.13;;;2.20;99.90;;;;;;4918290;28;84409;-86
2021/01/28 06:42:57;;;;;;;2.13;1.70;;;2.20;99.90;;;;;;4927532;28;83206;-89
2021/01/28 06:45:29;;;;;;;2.13;1.90;;;2.10;99.90;;;;;;4923684;28;83717;-87
2021/01/28 06:48:21;;;;;;;2.30;2.10;;;2.20;99.90;;;;;;4910129;28;86169;-86
2021/01/28 06:51:46;;;;;;;2.42;2.22;;;2.10;99.90;;;;;;4928857;28;84446;-86
2021/01/28 06:54:39;;;;;;;5.13;2.80;;;2.10;99.90;;;;;;4934655;28;83912;-85
2021/01/28 06:57:43;;;;;;;2.97;2.22;;;2.10;99.90;;;;;;4926372;28;83286;-84
2021/01/28 07:00:29;;;;;;;2.38;2.03;;;2.20;99.90;;;;;;4942585;28;85417;-86
2021/01/28 07:03:30;;;;;;;2.83;2.35;;;2.20;99.90;;;;;;4924403;28;86774;-86
2021/01/28 07:06:36;;;;;;;4.15;2.75;;;2.10;99.90;;;;;;4935261;28;83717;-88
2021/01/28 07:09:37;;;;;;;4.22;2.17;;;2.10;99.90;;;;;;4926287;28;83810;-85
2021/01/28 07:12:18;;;;;;;3.17;2.25;;;2.20;99.90;;;;;;4928345;28;83369;-85
2021/01/28 07:15:12;;;;;;;3.78;2.55;;;2.20;99.90;;;;;;4939272;28;83893;-86
2021/01/28 07:18:13;;;;;;;1.55;1.45;;;2.20;99.90;;;;;;4908893;28;84084;-84
2021/01/28 07:21:19;;;;;;;5.15;2.38;;;2.40;99.90;;;;;;4893176;28;83526;-86
2021/01/28 07:24:32;;;;;;;2.35;1.77;;;2.40;99.90;;;;;;4924699;28;84625;-88
2021/01/28 07:27:18;;;;;;;4.25;2.20;;;2.60;99.90;;;;;;4918918;28;85189;-87
2021/01/28 07:30:13;;;;;;;2.47;2.13;;;2.70;99.90;;;;;;4921188;28;83457;-87
2021/01/28 07:32:49;;;;;;;3.40;2.63;;;2.70;99.90;;;;;;4927940;28;83132;-88
2021/01/28 07:35:35;;;;;;;2.17;2.00;;;2.70;99.90;;;;;;4926755;28;83657;-84
2021/01/28 07:39:01;;;;;;;3.40;2.17;;;2.60;99.90;;;;;;4897685;28;83450;-85
2021/01/28 07:41:35;;;;;;;9.80;3.15;;;2.70;99.90;;;;;;4911554;28;84019;-84
2021/01/28 07:44:37;;;;;;;2.45;1.98;;;2.70;99.90;;;;;;4922814;28;83301;-86
2021/01/28 07:47:04;;;;;;;3.83;3.03;;;;;;;;;;4940629;28;85651;-86
2021/01/28 07:49:35;;;;;;;3.38;1.77;;;2.80;99.90;;;;;;4927059;28;83528;-86
2021/01/28 07:52:01;;;;;;;3.47;3.17;;;;;;;;;;4936711;28;83759;-87
2021/01/28 07:54:52;;;;;;;3.97;2.95;;;2.90;99.90;;;;;;4936607;28;84231;-86
2021/01/28 07:57:30;;;;;;;2.75;2.30;;;2.90;99.90;;;;;;4928621;28;83893;-87
2021/01/28 08:00:06;;;;;;;2.38;2.08;;;2.90;99.90;;;;;;4925511;28;85887;-87
2021/01/28 08:02:35;;;;;;;3.15;1.88;;;3.00;99.90;;;;;;4927937;28;83678;-87
2021/01/28 08:05:04;;;;;;;3.83;1.98;;;2.90;99.90;;;;;;4935877;28;83628;-87
2021/01/28 08:07:30;;;;;;;2.17;1.90;;;;;;;;;;4930248;28;86707;-87
2021/01/28 08:10:00;;;;;;;2.88;2.65;;;3.10;99.90;;;;;;4932852;28;84308;-88
2021/01/28 08:12:26;;;;;;;3.60;1.83;;;;;;;;;;4933723;28;83689;-88
2021/01/28 08:14:55;;;;;;;2.00;1.80;;;3.10;99.90;;;;;;4938792;28;84048;-88
2021/01/28 08:17:28;;;;;;;1.98;1.85;;;3.10;99.90;;;;;;4954258;28;84487;-88
2021/01/28 08:20:25;;;;;;;6.15;3.13;;;3.10;99.90;;;;;;4944829;28;84157;-86
2021/01/28 08:23:06;;;;;;;1.83;1.73;;;3.10;99.90;;;;;;4949746;28;83307;-87
2021/01/28 08:25:37;;;;;;;;;;;3.00;99.90;;;;;;4941026;28;83653;-87
2021/01/28 08:28:14;;;;;;;2.30;1.73;;;3.00;99.90;;;;;;4957532;28;84600;-87
2021/01/28 08:30:42;;;;;;;1.67;1.58;;;2.90;99.90;;;;;;4924381;28;85844;-87
2021/01/28 08:33:22;;;;;;;2.20;2.00;;;2.90;99.90;;;;;;4935825;28;82943;-88
2021/01/28 08:35:55;;;;;;;3.33;2.63;;;2.90;99.90;;;;;;4947892;28;83719;-87
2021/01/28 08:38:33;;;;;;;3.00;2.58;;;2.90;99.90;;;;;;4938433;28;83811;-86
2021/01/28 08:41:15;;;;;;;3.42;2.60;;;2.90;99.90;;;;;;4928153;28;85662;-88
2021/01/28 08:43:42;;;;;;;2.45;2.22;;;2.90;99.90;;;;;;4937499;28;83947;-86
2021/01/28 08:46:20;;;;;;;2.80;1.75;;;2.90;99.90;;;;;;4947745;28;83336;-88
2021/01/28 08:48:48;;;;;;;2.92;2.08;;;;;;;;;;4933205;28;84995;-87
2021/01/28 08:51:27;;;;;;;1.73;1.55;;;2.90;99.90;;;;;;4945050;28;86795;-88
2021/01/28 08:54:01;;;;;;;3.97;2.22;;;2.80;99.90;;;;;;4934183;28;83293;-87
2021/01/28 08:56:37;;;;;;;2.92;2.67;;;2.80;99.90;;;;;;4934189;28;83313;-87
2021/01/28 08:59:07;;;;;;;2.25;2.03;;;2.80;99.90;;;;;;4926817;28;86151;-86
2021/01/28 09:01:51;;;;;;;2.15;1.95;;;2.80;99.90;;;;;;4936748;28;83854;-88
2021/01/28 09:04:25;;;;;;;2.88;2.10;;;2.80;99.90;;;;;;4948874;28;84527;-86
2021/01/28 09:06:52;;;;;;;2.90;2.13;;;;;;;;;;4938880;28;83260;-87
2021/01/28 09:09:25;;;;;;;1.63;1.50;;;3.00;99.90;;;;;;4942258;28;83538;-85
2021/01/28 09:11:53;;;;;;;2.10;1.90;;;3.10;99.90;;;;;;4948024;28;84075;-88
2021/01/28 09:14:36;;;;;;;3.58;2.13;;;3.10;99.90;;;;;;4940156;28;84012;-86
2021/01/28 09:17:05;;;;;;;1.50;1.40;;;3.10;99.90;;;;;;4939893;28;83761;-85
2021/01/28 09:19:36;;;;;;;1.58;1.42;;;3.20;99.90;;;;;;4951713;28;83774;-87
2021/01/28 09:22:21;;;;;;;2.10;1.90;;;3.20;99.90;;;;;;4953893;28;84142;-86
2021/01/28 09:24:48;;;;;;;1.58;1.30;;;3.10;99.90;;;;;;4938390;28;83818;-86
2021/01/28 09:27:20;;;;;;;2.03;1.63;;;3.20;99.90;;;;;;4943634;28;84036;-87
2021/01/28 09:29:47;;;;;;;1.42;1.33;;;3.30;99.90;;;;;;4925721;28;83961;-86
2021/01/28 09:32:27;;;;;;;1.52;1.42;;;3.20;99.90;;;;;;4953248;28;83906;-86
2021/01/28 09:35:16;;;;;;;1.67;1.58;;;3.30;99.90;;;;;;4946858;28;83812;-86
2021/01/28 09:38:02;;;;;;;2.20;1.77;;;3.20;99.90;;;;;;4941084;28;83458;-86
2021/01/28 09:40:34;;;;;;;2.55;1.40;;;3.30;99.90;;;;;;4947330;28;84095;-87
2021/01/28 09:43:24;;;;;;;2.60;1.45;;;3.30;99.90;;;;;;4936677;28;87169;-87
2021/01/28 09:46:25;;;;;;;0.95;0.95;;;3.50;99.90;;;;;;4926074;28;83944;-87
2021/01/28 09:48:53;;;;;;;0.80;0.80;;;3.60;99.90;;;;;;4937570;28;83925;-87
2021/01/28 09:51:35;;;;;;;1.40;1.30;;;3.70;99.90;;;;;;4938424;28;84462;-87
2021/01/28 09:54:33;;;;;;;1.60;1.23;;;3.70;99.90;;;;;;4947942;28;83823;-86
2021/01/28 09:56:59;;;;;;;1.40;1.33;;;;;;;;;;4937792;28;86267;-87
2021/01/28 09:59:25;;;;;;;1.25;1.15;;;;;;;;;;4943197;28;83740;-87
2021/01/28 10:01:51;;;;;;;1.10;1.10;;;;;;;;;;4944734;28;83306;-87
2021/01/28 10:04:17;;;;;;;1.17;1.15;;;;;;;;;;4938224;28;85952;-85
2021/01/28 10:06:43;;;;;;;0.90;0.90;;;;;;;;;;4933308;28;85786;-86
2021/01/28 10:09:10;;;;;;;0.90;0.90;;;4.10;99.90;;;;;;4930305;28;83589;-86
2021/01/28 10:11:36;;;;;;;0.70;0.70;;;;;;;;;;4939528;28;89316;-86
2021/01/28 10:14:02;;;;;;;0.60;0.60;;;4.10;99.90;;;;;;4936911;28;84254;-86
2021/01/28 10:16:28;;;;;;;1.00;1.00;;;;;;;;;;4936025;28;84023;-87
2021/01/28 10:18:55;;;;;;;1.40;1.30;;;;;;;;;;4924756;28;83582;-87
2021/01/28 10:21:21;;;;;;;1.30;0.93;;;;;;;;;;4945652;28;84387;-86
2021/01/28 10:23:47;;;;;;;1.02;0.80;;;;;;;;;;4940238;28;86040;-87
2021/01/28 10:26:13;;;;;;;0.90;0.90;;;;;;;;;;4928171;28;83418;-85
2021/01/28 10:28:39;;;;;;;1.05;0.95;;;;;;;;;;4956825;28;83213;-86
2021/01/28 10:31:08;;;;;;;1.40;1.30;;;4.10;99.90;;;;;;4934636;28;84598;-87
2021/01/28 10:33:36;;;;;;;0.88;0.88;;;4.10;99.90;;;;;;4938091;28;83430;-85
2021/01/28 10:36:02;;;;;;;1.27;1.10;;;4.20;99.90;;;;;;4943968;28;83692;-86
2021/01/28 10:38:29;;;;;;;0.73;0.73;;;;;;;;;;4939161;28;83189;-85
2021/01/28 10:40:55;;;;;;;1.45;1.20;;;4.10;99.90;;;;;;4945437;28;83790;-85
2021/01/28 10:43:22;;;;;;;1.02;0.93;;;4.20;99.90;;;;;;4931984;28;87505;-85
2021/01/28 10:45:49;;;;;;;0.73;0.73;;;;;;;;;;4936839;28;83156;-86
2021/01/28 10:48:16;;;;;;;1.00;1.00;;;5.10;99.90;;;;;;4926136;28;83550;-84
2021/01/28 10:50:42;;;;;;;1.15;0.90;;;;;;;;;;4947412;28;83867;-85
2021/01/28 10:53:09;;;;;;;0.80;0.80;;;;;;;;;;4945110;28;84266;-86
2021/01/28 10:55:35;;;;;;;1.92;0.80;;;;;;;;;;4930961;28;83076;-85
2021/01/28 10:58:01;;;;;;;1.77;1.02;;;;;;;;;;4936423;28;83310;-85
2021/01/28 11:00:31;;;;;;;1.50;1.00;;;4.40;99.90;;;;;;4928160;28;83572;-84
2021/01/28 11:02:57;;;;;;;1.20;1.10;;;;;;;;;;4950750;28;84362;-85
2021/01/28 11:05:28;;;;;;;0.85;0.85;;;4.40;99.90;;;;;;4935984;28;83050;-85
2021/01/28 11:07:54;;;;;;;1.00;1.00;;;;;;;;;;4935829;28;83612;-85
2021/01/28 11:10:23;;;;;;;1.33;0.93;;;;;;;;;;4929587;28;84347;-84
2021/01/28 11:12:50;;;;;;;0.88;0.88;;;4.60;99.90;;;;;;4930245;28;83950;-84
2021/01/28 11:15:16;;;;;;;0.85;0.85;;;4.60;99.90;;;;;;4936385;28;83629;-85
2021/01/28 11:17:42;;;;;;;1.58;0.90;;;4.50;99.90;;;;;;4932743;28;84770;-85
2021/01/28 11:20:11;;;;;;;0.70;0.70;;;4.50;99.90;;;;;;4938435;28;83741;-83
2021/01/28 11:22:38;;;;;;;0.95;0.95;;;4.50;99.90;;;;;;4930435;28;83906;-83
2021/01/28 11:25:07;;;;;;;1.20;0.85;;;4.50;99.90;;;;;;4938281;28;83757;-86
2021/01/28 11:27:33;;;;;;;0.90;0.90;;;4.60;99.90;;;;;;4937026;28;84047;-85
2021/01/28 11:29:59;;;;;;;1.08;1.08;;;;;;;;;;4939776;28;84468;-83
2021/01/28 11:32:25;;;;;;;1.30;1.23;;;4.60;99.90;;;;;;4934717;28;83948;-86
2021/01/28 11:34:51;;;;;;;0.82;0.82;;;4.70;99.90;;;;;;4926913;28;84242;-86
2021/01/28 11:37:16;;;;;;;0.90;0.80;;;4.70;99.90;;;;;;4933937;28;83389;-84
2021/01/28 11:39:42;;;;;;;0.90;0.90;;;;;;;;;;4934322;28;84433;-83
2021/01/28 11:42:11;;;;;;;1.10;1.10;;;4.70;99.90;;;;;;4934683;28;84206;-85
2021/01/28 11:44:37;;;;;;;0.80;0.80;;;4.70;99.90;;;;;;4937384;28;83563;-83
2021/01/28 11:47:03;;;;;;;0.90;0.90;;;4.60;99.90;;;;;;4936706;28;83801;-82
2021/01/28 11:49:29;;;;;;;1.02;1.02;;;4.50;99.90;;;;;;4934316;28;86693;-80
2021/01/28 11:51:54;;;;;;;0.90;0.90;;;4.50;99.90;;;;;;4936414;28;84080;-84
2021/01/28 11:54:24;;;;;;;0.90;0.90;;;4.50;99.90;;;;;;4930205;28;83929;-85
2021/01/28 11:56:50;;;;;;;1.52;0.95;;;;;;;;;;4931776;28;83908;-85
2021/01/28 11:59:16;;;;;;;0.82;0.82;;;;;;;;;;4946374;28;85357;-82
2021/01/28 12:01:43;;;;;;;0.93;0.93;;;;;;;;;;4943005;28;83375;-84
2021/01/28 12:04:10;;;;;;;0.90;0.90;;;4.70;99.90;;;;;;4930001;28;82928;-83
2021/01/28 12:06:51;;;;;;;1.08;0.93;;;4.70;99.90;;;;;;4941139;28;83239;-85
2021/01/28 12:09:34;;;;;;;5.38;2.20;;;4.60;99.90;;;;;;4945040;28;83388;-85
2021/01/28 12:12:00;;;;;;;2.30;0.90;;;;;;;;;;4920708;28;86961;-84
2021/01/28 12:14:26;;;;;;;1.35;0.88;;;4.60;99.90;;;;;;4940721;28;84013;-82
2021/01/28 12:16:52;;;;;;;1.25;0.98;;;;;;;;;;4935336;28;83514;-83
2021/01/28 12:19:18;;;;;;;1.10;1.00;;;4.60;99.90;;;;;;4934615;28;83506;-84
2021/01/28 12:21:43;;;;;;;1.00;1.00;;;4.60;99.90;;;;;;4938100;28;83933;-82
2021/01/28 12:24:10;;;;;;;0.93;0.82;;;4.60;99.90;;;;;;4928481;28;85656;-84
2021/01/28 12:26:35;;;;;;;0.95;0.85;;;4.60;99.90;;;;;;4925538;28;83729;-83
2021/01/28 12:29:01;;;;;;;1.63;1.08;;;4.50;99.90;;;;;;4929553;28;84029;-84
2021/01/28 12:31:27;;;;;;;1.10;1.10;;;;;;;;;;4927435;28;83915;-83
2021/01/28 12:33:53;;;;;;;1.10;1.10;;;;;;;;;;4922390;28;83869;-84
2021/01/28 12:36:19;;;;;;;1.00;1.00;;;;;;;;;;4935757;28;85209;-83
2021/01/28 12:38:45;;;;;;;1.10;1.10;;;;;;;;;;4931803;28;84581;-83
2021/01/28 12:41:11;;;;;;;0.93;0.93;;;;;;;;;;4931704;28;83528;-83
2021/01/28 12:43:38;;;;;;;0.82;0.82;;;;;;;;;;4932960;28;83877;-83
2021/01/28 12:46:03;;;;;;;0.93;0.93;;;4.80;99.90;;;;;;4928537;28;83643;-84
2021/01/28 12:48:29;;;;;;;1.20;1.20;;;4.90;99.90;;;;;;4933798;28;83531;-84
2021/01/28 12:50:55;;;;;;;0.90;0.90;;;5.00;99.90;;;;;;4923851;28;83854;-83
2021/01/28 12:53:21;;;;;;;0.88;0.88;;;5.00;99.90;;;;;;4922437;28;84014;-81
2021/01/28 12:55:47;;;;;;;1.42;1.02;;;5.10;99.90;;;;;;4922541;28;84234;-82
2021/01/28 12:58:14;;;;;;;1.48;1.15;;;;;;;;;;4922902;28;83357;-84
2021/01/28 13:00:40;;;;;;;1.00;1.00;;;5.20;99.90;;;;;;4933238;28;83605;-82
2021/01/28 13:03:06;;;;;;;0.70;0.70;;;;;;;;;;4931206;28;85463;-83
2021/01/28 13:05:32;;;;;;;1.10;1.10;;;;;;;;;;4926312;28;83976;-83
2021/01/28 13:07:58;;;;;;;1.00;1.00;;;;;;;;;;4914498;28;87372;-83
2021/01/28 13:10:24;;;;;;;1.50;1.30;;;5.40;99.90;;;;;;4917601;28;85607;-81
2021/01/28 13:12:50;;;;;;;1.55;0.82;;;5.30;99.90;;;;;;4936467;28;84004;-82
2021/01/28 13:15:20;;;;;;;1.48;0.77;;;5.30;99.90;;;;;;4929333;28;83515;-82
2021/01/28 13:17:46;;;;;;;1.13;1.13;;;5.30;99.90;;;;;;4933149;28;84655;-82
2021/01/28 13:20:14;;;;;;;1.60;1.50;;;5.30;99.90;;;;;;4934566;28;84370;-82
2021/01/28 13:22:41;;;;;;;1.00;0.90;;;5.30;99.90;;;;;;4930742;28;83753;-82
2021/01/28 13:25:09;;;;;;;1.10;1.10;;;5.30;99.90;;;;;;4927091;28;83827;-82
2021/01/28 13:27:35;;;;;;;0.88;0.88;;;;;;;;;;4935701;28;83827;-81
2021/01/28 13:30:03;;;;;;;1.58;1.17;;;5.30;99.90;;;;;;4934572;28;84147;-82
2021/01/28 13:32:31;;;;;;;0.85;0.85;;;5.40;99.90;;;;;;4934349;28;83619;-82
2021/01/28 13:34:57;;;;;;;1.27;1.17;;;5.40;99.90;;;;;;4934331;28;84052;-83
2021/01/28 13:37:23;;;;;;;0.80;0.80;;;5.40;99.90;;;;;;4926321;28;87513;-82
2021/01/28 13:39:49;;;;;;;1.40;1.30;;;5.30;99.90;;;;;;4931396;28;83693;-82
2021/01/28 13:42:15;;;;;;;3.83;1.40;;;;;;;;;;4943439;28;84162;-83
2021/01/28 13:44:41;;;;;;;1.70;1.17;;;;;;;;;;4944027;28;83821;-82
2021/01/28 13:47:07;;;;;;;1.50;1.40;;;;;;;;;;4934511;28;84988;-82
2021/01/28 13:49:33;;;;;;;1.48;1.38;;;;;;;;;;4935091;28;83689;-82
2021/01/28 13:51:59;;;;;;;3.80;1.20;;;;;;;;;;4942522;28;83642;-80
2021/01/28 13:54:25;;;;;;;0.95;0.90;;;;;;;;;;4933929;28;83174;-83
2021/01/28 13:56:52;;;;;;;1.10;1.10;;;5.40;99.90;;;;;;4933542;28;84539;-83
2021/01/28 13:59:19;;;;;;;2.97;0.90;;;;;;;;;;4935292;28;84850;-82
2021/01/28 14:01:57;;;;;;;1.67;1.27;;;5.40;99.90;;;;;;4949954;28;83686;-83
2021/01/28 14:05:09;;;;;;;0.80;0.80;;;5.50;99.90;;;;;;4930220;28;84230;-84
2021/01/28 14:07:35;;;;;;;1.10;1.10;;;;;;;;;;4921027;28;83624;-83
2021/01/28 14:10:01;;;;;;;1.13;1.08;;;;;;;;;;4938595;28;83165;-83
2021/01/28 14:12:38;;;;;;;0.80;0.80;;;6.20;99.90;;;;;;4931642;28;83594;-83
2021/01/28 14:15:21;;;;;;;1.58;0.90;;;6.40;99.90;;;;;;4918355;28;83674;-84
2021/01/28 14:17:52;;;;;;;3.17;1.13;;;;;;;;;;4916158;28;84455;-83
2021/01/28 14:20:49;;;;;;;;;;;6.70;99.90;;;;;;4933102;28;85064;-84
2021/01/28 14:23:18;;;;;;;2.40;1.38;;;;;;;;;;4917233;28;83849;-83
2021/01/28 14:25:44;;;;;;;1.48;1.10;;;7.40;99.90;;;;;;4938843;28;83759;-83
2021/01/28 14:28:12;;;;;;;0.95;0.95;;;7.40;99.90;;;;;;4924685;28;83724;-83
2021/01/28 14:30:40;;;;;;;0.90;0.90;;;7.80;99.90;;;;;;4922736;28;84329;-82
2021/01/28 14:33:09;;;;;;;0.90;0.90;;;7.80;99.90;;;;;;4935629;28;83069;-82
2021/01/28 14:35:35;;;;;;;1.40;1.30;;;;;;;;;;4969241;28;83086;-82
2021/01/28 14:38:06;;;;;;;1.08;0.98;;;7.50;99.90;;;;;;4943917;28;86984;-83
2021/01/28 14:40:32;;;;;;;0.93;0.82;;;7.40;99.90;;;;;;4948133;28;84301;-80
2021/01/28 14:42:58;;;;;;;1.00;1.00;;;;;;;;;;4952174;28;83549;-83
2021/01/28 14:45:25;;;;;;;2.00;1.35;;;7.00;99.90;;;;;;4950412;28;83099;-83
2021/01/28 14:47:51;;;;;;;1.00;1.00;;;;;;;;;;4978921;28;83814;-83
2021/01/28 14:50:17;;;;;;;1.00;1.00;;;7.00;99.90;;;;;;4972629;28;84095;-83
2021/01/28 14:52:43;;;;;;;1.27;1.20;;;7.00;99.90;;;;;;4947668;28;83620;-82
2021/01/28 14:55:10;;;;;;;1.75;1.10;;;6.90;99.90;;;;;;4976511;28;83552;-82
2021/01/28 14:57:36;;;;;;;0.90;0.90;;;;;;;;;;4971334;28;86799;-83
2021/01/28 15:00:04;;;;;;;0.98;0.98;;;7.10;99.90;;;;;;4959572;28;85218;-82
2021/01/28 15:02:30;;;;;;;1.17;1.10;;;;;;;;;;4979132;28;83945;-81
2021/01/28 15:04:56;;;;;;;1.10;1.10;;;;;;;;;;4955310;28;83626;-83
2021/01/28 15:07:23;;;;;;;0.98;0.90;;;;;;;;;;4935041;28;85963;-82
2021/01/28 15:09:50;;;;;;;1.40;0.90;;;;;;;;;;4934937;28;84027;-82
2021/01/28 15:12:16;;;;;;;0.90;0.90;;;7.50;99.90;;;;;;4931948;28;83946;-82
2021/01/28 15:14:42;;;;;;;1.48;1.10;;;;;;;;;;4944387;28;84075;-82
2021/01/28 15:17:08;;;;;;;1.02;1.02;;;;;;;;;;4940477;28;83781;-81
2021/01/28 15:19:34;;;;;;;1.65;1.00;;;;;;;;;;4926090;28;83812;-80
2021/01/28 15:22:00;;;;;;;0.90;0.90;;;;;;;;;;4933403;28;83039;-82
2021/01/28 15:24:26;;;;;;;1.63;1.10;;;7.80;99.90;;;;;;4931798;28;83993;-82
2021/01/28 15:26:52;;;;;;;0.80;0.80;;;;;;;;;;4932088;28;84831;-81
2021/01/28 15:29:19;;;;;;;0.88;0.88;;;;;;;;;;4921778;28;84090;-81
2021/01/28 15:31:46;;;;;;;0.82;0.82;;;;;;;;;;4931951;28;83691;-82
2021/01/28 15:34:12;;;;;;;1.52;1.10;;;;;;;;;;4933042;28;83578;-81
2021/01/28 15:36:38;;;;;;;1.10;1.10;;;;;;;;;;4931903;28;83971;-81
2021/01/28 15:39:05;;;;;;;1.10;1.10;;;7.80;99.90;;;;;;4926038;28;87152;-81
2021/01/28 15:41:31;;;;;;;1.20;1.20;;;;;;;;;;4913386;28;83532;-80
2021/01/28 15:43:58;;;;;;;0.90;0.90;;;;;;;;;;4935064;28;83513;-81
2021/01/28 15:46:24;;;;;;;1.02;1.02;;;8.70;99.90;;;;;;4924633;28;84849;-84
2021/01/28 15:48:51;;;;;;;0.90;0.90;;;;;;;;;;4932026;28;84905;-83
2021/01/28 15:51:17;;;;;;;1.02;1.00;;;;;;;;;;4939694;28;83865;-83
2021/01/28 15:53:43;;;;;;;0.88;0.88;;;;;;;;;;4934094;28;83574;-83
2021/01/28 15:56:12;;;;;;;0.90;0.90;;;9.60;99.90;;;;;;4928442;28;83788;-83
2021/01/28 15:58:41;;;;;;;0.93;0.93;;;;;;;;;;4926803;28;83640;-83
2021/01/28 16:01:07;;;;;;;0.95;0.95;;;9.50;99.90;;;;;;4929676;28;83845;-81
2021/01/28 16:03:34;;;;;;;1.10;1.10;;;;;;;;;;4933281;28;83844;-83
2021/01/28 16:06:00;;;;;;;0.98;0.98;;;9.40;99.90;;;;;;4928406;28;83747;-83
2021/01/28 16:08:26;;;;;;;1.00;1.00;;;;;;;;;;4932154;28;84680;-83
2021/01/28 16:10:52;;;;;;;1.15;1.15;;;9.20;99.90;;;;;;4933118;28;83704;-83
2021/01/28 16:13:19;;;;;;;1.45;1.10;;;9.20;99.90;;;;;;4937337;28;83652;-84
2021/01/28 16:15:46;;;;;;;0.90;0.90;;;;;;;;;;4938057;28;84186;-85
2021/01/28 16:18:14;;;;;;;0.85;0.85;;;;;;;;;;4935484;28;83160;-85
2021/01/28 16:20:40;;;;;;;1.67;1.00;;;;;;;;;;4936976;28;83584;-85
2021/01/28 16:23:08;;;;;;;1.20;1.10;;;;;;;;;;4937542;28;83972;-85
2021/01/28 16:25:34;;;;;;;1.15;1.05;;;;;;;;;;4939283;28;83995;-85
2021/01/28 16:28:00;;;;;;;2.58;1.10;;;;;;;;;;4939815;28;83816;-84
2021/01/28 16:30:29;;;;;;;1.10;1.00;;;8.30;99.90;;;;;;4930212;28;83326;-85
2021/01/28 16:33:11;;;;;;;0.70;0.70;;;7.90;99.90;;;;;;4934022;28;83663;-83
2021/01/28 16:35:47;;;;;;;0.93;0.90;;;7.70;99.90;;;;;;4935317;28;84668;-83
2021/01/28 16:38:24;;;;;;;1.73;1.20;;;7.80;99.90;;;;;;4932691;28;85523;-83
2021/01/28 16:41:19;;;;;;;1.13;1.02;;;7.80;99.90;;;;;;4930705;28;83878;-82
2021/01/28 16:44:03;;;;;;;1.30;1.30;;;7.90;99.90;;;;;;4934068;28;84790;-83
2021/01/28 16:50:04;;;;;;;1.10;1.00;;;7.20;99.90;;;;;;4898273;28;84719;-84
2021/01/28 16:52:35;;;;;;;2.38;1.02;;;;;;;;;;4879370;28;83171;-82
2021/01/28 16:58:53;;;;;;;2.10;1.30;;;7.30;99.90;;;;;;4764668;29;83267;-83
2021/01/28 17:01:41;;;;;;;1.10;1.10;;;7.30;99.90;;;;;;4771122;29;84665;-80
2021/01/28 17:04:07;;;;;;;0.98;0.82;;;;;;;;;;4864513;29;84139;-83
2021/01/28 17:06:33;;;;;;;1.02;1.02;;;7.70;99.90;;;;;;4824169;29;83930;-80
2021/01/28 17:09:00;;;;;;;1.30;1.00;;;;;;;;;;4823402;29;86703;-81
2021/01/28 17:11:26;;;;;;;0.90;0.90;;;;;;;;;;4824451;29;84742;-82
2021/01/28 17:14:04;;;;;;;1.27;1.20;;;7.50;99.90;;;;;;4839716;29;83089;-83
2021/01/28 17:16:36;;;;;;;1.05;1.05;;;7.70;99.90;;;;;;4823530;29;83703;-83
2021/01/28 17:19:03;;;;;;;0.93;0.82;;;7.70;99.90;;;;;;4840855;29;85160;-83
2021/01/28 17:21:31;;;;;;;2.60;2.50;;;7.60;99.90;;;;;;4844935;29;84315;-84
2021/01/28 17:23:57;;;;;;;1.20;1.10;;;;;;;;;;4840883;29;84019;-82
2021/01/28 17:26:24;;;;;;;1.13;1.05;;;7.40;99.90;;;;;;4845075;29;83757;-82
2021/01/28 17:28:50;;;;;;;2.28;1.30;;;7.30;99.90;;;;;;4835077;29;84725;-79
2021/01/28 17:31:16;;;;;;;1.63;1.00;;;7.20;99.90;;;;;;4836844;29;84451;-79
2021/01/28 17:33:44;;;;;;;1.20;1.10;;;7.10;99.90;;;;;;4835689;29;83885;-85
2021/01/28 17:36:13;;;;;;;1.08;0.98;;;7.10;99.90;;;;;;4824800;29;83832;-84
2021/01/28 17:38:41;;;;;;;5.95;1.60;;;;;;;;;;4895216;28;84937;-85
2021/01/28 17:41:34;;;;;;;1.25;1.15;;;7.20;99.90;;;;;;4942243;28;84504;-86
2021/01/28 17:44:14;;;;;;;4.05;1.20;;;6.80;99.90;;;;;;4925762;28;83547;-86
2021/01/28 17:47:05;;;;;;;1.52;1.42;;;6.90;99.90;;;;;;4947046;28;83897;-87
2021/01/28 17:50:00;;;;;;;2.15;1.50;;;7.00;99.90;;;;;;4927836;28;84444;-86
2021/01/28 17:52:44;;;;;;;2.10;1.13;;;7.30;99.90;;;;;;4957953;28;84121;-84
2021/01/28 17:55:15;;;;;;;1.75;1.05;;;7.40;99.90;;;;;;4936876;28;83580;-86